createdAt,value
2022-12-02T00:00:20.610Z,100749.31
2022-12-02T00:01:23.703Z,100758.31
2022-12-02T00:02:28.603Z,100753.88
2022-12-02T00:03:32.546Z,100754.75
2022-12-02T00:04:34.678Z,100746.78
2022-12-02T00:05:38.755Z,100741.47
2022-12-02T00:06:40.395Z,100744.34
2022-12-02T00:07:43.697Z,100739.75
2022-12-02T00:08:45.353Z,100747.06
2022-12-02T00:09:48.079Z,100746.38
2022-12-02T00:10:52.926Z,100742.78
2022-12-02T00:11:54.627Z,100746.19
2022-12-02T00:12:58.728Z,100749.78
2022-12-02T00:14:04.718Z,100746.38
2022-12-02T00:15:42.989Z,100740.06
2022-12-02T00:16:44.777Z,100736.50
2022-12-02T00:17:47.535Z,100733.78
2022-12-02T00:18:49.493Z,100734.63
2022-12-02T00:19:52.378Z,100734.63
2022-12-02T00:20:56.181Z,100735.50
2022-12-02T00:21:58.885Z,100732.59
2022-12-02T00:23:00.662Z,100730.59
2022-12-02T00:24:03.365Z,100737.91
2022-12-02T00:25:05.989Z,100730.75
2022-12-02T00:26:08.786Z,100728.88
2022-12-02T00:27:10.750Z,100731.59
2022-12-02T00:28:13.531Z,100731.59
2022-12-02T00:29:15.349Z,100733.31
2022-12-02T00:30:18.101Z,100732.47
2022-12-02T00:31:20.169Z,100731.59
2022-12-02T00:32:22.917Z,100728.75
2022-12-02T00:33:25.114Z,100729.88
2022-12-02T00:34:27.819Z,100731.59
2022-12-02T00:35:29.555Z,100722.59
2022-12-02T00:36:33.624Z,100721.91
2022-12-02T00:37:35.330Z,100726.50
2022-12-02T00:38:38.004Z,100726.31
2022-12-02T00:39:39.720Z,100729.22
2022-12-02T00:40:42.426Z,100730.91
2022-12-02T00:41:44.096Z,100730.06
2022-12-02T00:42:46.910Z,100721.06
2022-12-02T00:44:06.961Z,100727.50
2022-12-02T00:45:28.875Z,100718.63
2022-12-02T00:46:34.712Z,100720.47
2022-12-02T00:47:37.466Z,100724.06
2022-12-02T00:48:39.374Z,100725.22
2022-12-02T00:49:42.040Z,100723.50
2022-12-02T00:50:43.782Z,100725.38
2022-12-02T00:51:47.880Z,100723.50
2022-12-02T00:52:49.750Z,100725.38
2022-12-02T00:53:52.422Z,100718.06
2022-12-02T00:54:54.092Z,100723.66
2022-12-02T00:55:56.729Z,100714.50
2022-12-02T00:56:59.954Z,100718.22
2022-12-02T00:58:01.685Z,100718.38
2022-12-02T00:59:05.111Z,100716.28
2022-12-02T01:00:08.482Z,100715.09
2022-12-02T01:01:11.654Z,100714.41
2022-12-02T01:02:13.492Z,100713.56
2022-12-02T01:03:16.375Z,100713.69
2022-12-02T01:04:18.033Z,100711.13
2022-12-02T01:05:20.717Z,100715.41
2022-12-02T01:06:22.489Z,100710.69
2022-12-02T01:07:26.653Z,100711.69
2022-12-02T01:08:29.064Z,100714.41
2022-12-02T01:09:31.811Z,100710.69
2022-12-02T01:10:33.528Z,100707.13
2022-12-02T01:11:36.208Z,100709.84
2022-12-02T01:12:37.942Z,100702.69
2022-12-02T01:13:40.782Z,100698.13
2022-12-02T01:14:42.510Z,100706.13
2022-12-02T01:15:45.201Z,100703.41
2022-12-02T01:16:46.919Z,100704.81
2022-12-02T01:17:49.763Z,100700.13
2022-12-02T01:18:51.432Z,100702.69
2022-12-02T01:19:54.060Z,100708.25
2022-12-02T01:20:55.715Z,100700.13
2022-12-02T01:21:58.322Z,100697.41
2022-12-02T01:23:01.433Z,100693.00
2022-12-02T01:24:04.227Z,100688.53
2022-12-02T01:25:06.387Z,100696.53
2022-12-02T01:26:09.010Z,100691.25
2022-12-02T01:27:10.753Z,100691.09
2022-12-02T01:28:13.446Z,100690.28
2022-12-02T01:29:15.133Z,100696.53
2022-12-02T01:30:17.991Z,100692.25
2022-12-02T01:31:19.996Z,100689.53
2022-12-02T01:32:23.564Z,100699.41
2022-12-02T01:33:25.282Z,100691.25
2022-12-02T01:34:27.975Z,100697.69
2022-12-02T01:35:29.698Z,100699.41
2022-12-02T01:36:32.455Z,100697.53
2022-12-02T01:37:34.245Z,100701.97
2022-12-02T01:38:38.330Z,100701.97
2022-12-02T01:39:40.049Z,100699.53
2022-12-02T01:40:42.793Z,100701.25
2022-12-02T01:41:44.717Z,100699.41
2022-12-02T01:42:48.747Z,100701.97
2022-12-02T01:43:50.526Z,100702.25
2022-12-02T01:44:53.384Z,100705.81
2022-12-02T01:45:55.373Z,100702.25
2022-12-02T01:46:58.101Z,100706.81
2022-12-02T01:48:00.770Z,100701.72
2022-12-02T01:49:03.555Z,100706.13
2022-12-02T01:50:07.299Z,100699.84
2022-12-02T01:51:10.012Z,100700.00
2022-12-02T01:52:11.789Z,100700.00
2022-12-02T01:53:14.562Z,100701.84
2022-12-02T01:54:17.792Z,100698.28
2022-12-02T01:55:23.009Z,100698.28
2022-12-02T01:56:25.078Z,100701.72
2022-12-02T01:57:30.508Z,100698.44
2022-12-02T01:58:32.276Z,100690.56
2022-12-02T01:59:35.036Z,100691.44
2022-12-02T02:00:36.782Z,100687.88
2022-12-02T02:01:39.962Z,100694.00
2022-12-02T02:02:42.157Z,100693.16
2022-12-02T02:03:44.871Z,100690.56
2022-12-02T02:04:46.707Z,100700.31
2022-12-02T02:05:50.685Z,100694.00
2022-12-02T02:06:52.374Z,100695.00
2022-12-02T02:07:56.885Z,100693.44
2022-12-02T02:08:58.946Z,100694.16
2022-12-02T02:10:03.045Z,100693.16
2022-12-02T02:11:04.862Z,100697.59
2022-12-02T02:12:07.637Z,100697.41
2022-12-02T02:13:10.360Z,100698.03
2022-12-02T02:14:14.206Z,100688.72
2022-12-02T02:15:16.558Z,100694.88
2022-12-02T02:16:19.251Z,100689.72
2022-12-02T02:17:21.083Z,100694.28
2022-12-02T02:18:23.758Z,100695.16
2022-12-02T02:19:25.553Z,100692.44
2022-12-02T02:20:28.745Z,100690.44
2022-12-02T02:21:36.705Z,100692.59
2022-12-02T02:22:42.579Z,100688.88
2022-12-02T02:23:45.703Z,100696.16
2022-12-02T02:24:48.530Z,100699.91
2022-12-02T02:25:52.452Z,100690.03
2022-12-02T02:26:55.116Z,100684.59
2022-12-02T02:27:58.635Z,100692.59
2022-12-02T02:29:01.322Z,100690.72
2022-12-02T02:30:03.367Z,100684.59
2022-12-02T02:31:06.435Z,100687.19
2022-12-02T02:32:08.179Z,100686.16
2022-12-02T02:33:11.584Z,100691.13
2022-12-02T02:34:13.368Z,100688.28
2022-12-02T02:35:16.396Z,100685.56
2022-12-02T02:36:18.459Z,100684.56
2022-12-02T02:37:21.116Z,100687.41
2022-12-02T02:38:24.718Z,100685.69
2022-12-02T02:39:28.907Z,100687.41
2022-12-02T02:40:31.460Z,100683.84
2022-12-02T02:41:34.233Z,100690.13
2022-12-02T02:42:36.020Z,100681.13
2022-12-02T02:43:39.514Z,100687.13
2022-12-02T02:44:41.391Z,100679.97
2022-12-02T02:45:44.863Z,100679.97
2022-12-02T02:46:46.615Z,100677.25
2022-12-02T02:47:49.927Z,100679.25
2022-12-02T02:48:51.679Z,100680.25
2022-12-02T02:49:54.381Z,100676.53
2022-12-02T02:50:56.306Z,100672.84
2022-12-02T02:51:59.022Z,100680.25
2022-12-02T02:53:01.437Z,100676.31
2022-12-02T02:54:04.285Z,100677.00
2022-12-02T02:55:08.181Z,100675.88
2022-12-02T02:56:11.887Z,100677.72
2022-12-02T02:57:13.704Z,100681.13
2022-12-02T02:58:19.448Z,100681.84
2022-12-02T02:59:22.123Z,100671.84
2022-12-02T03:00:24.332Z,100672.84
2022-12-02T03:01:29.392Z,100663.97
2022-12-02T03:02:31.496Z,100666.69
2022-12-02T03:03:36.744Z,100671.28
2022-12-02T03:04:39.281Z,100673.84
2022-12-02T03:05:42.178Z,100674.16
2022-12-02T03:06:44.507Z,100663.97
2022-12-02T03:07:47.381Z,100663.16
2022-12-02T03:08:49.543Z,100674.16
2022-12-02T03:09:52.467Z,100671.28
2022-12-02T03:10:57.057Z,100665.00
2022-12-02T03:12:00.048Z,100669.41
2022-12-02T03:13:02.118Z,100660.25
2022-12-02T03:14:05.344Z,100665.28
2022-12-02T03:15:08.419Z,100661.44
2022-12-02T03:16:14.305Z,100657.31
2022-12-02T03:17:16.360Z,100655.41
2022-12-02T03:18:19.410Z,100658.00
2022-12-02T03:19:21.255Z,100650.56
2022-12-02T03:20:24.552Z,100646.00
2022-12-02T03:21:26.925Z,100641.69
2022-12-02T03:22:30.464Z,100639.00
2022-12-02T03:23:32.910Z,100640.56
2022-12-02T03:24:35.759Z,100644.13
2022-12-02T03:25:37.586Z,100644.97
2022-12-02T03:26:42.053Z,100640.38
2022-12-02T03:27:43.936Z,100641.97
2022-12-02T03:28:47.070Z,100643.81
2022-12-02T03:29:48.845Z,100637.53
2022-12-02T03:30:52.240Z,100634.81
2022-12-02T03:31:54.038Z,100640.25
2022-12-02T03:32:56.799Z,100636.53
2022-12-02T03:33:58.552Z,100634.97
2022-12-02T03:35:01.937Z,100636.66
2022-12-02T03:36:03.827Z,100641.97
2022-12-02T03:37:06.592Z,100639.06
2022-12-02T03:38:08.270Z,100640.78
2022-12-02T03:39:11.334Z,100648.06
2022-12-02T03:40:13.431Z,100638.06
2022-12-02T03:41:16.138Z,100641.66
2022-12-02T03:42:19.287Z,100641.66
2022-12-02T03:43:21.994Z,100641.78
2022-12-02T03:44:23.747Z,100639.94
2022-12-02T03:45:26.614Z,100638.06
2022-12-02T03:46:29.264Z,100646.94
2022-12-02T03:47:32.465Z,100637.53
2022-12-02T03:48:35.030Z,100638.94
2022-12-02T03:49:38.849Z,100630.78
2022-12-02T03:50:41.290Z,100635.53
2022-12-02T03:51:44.422Z,100630.94
2022-12-02T03:52:46.167Z,100630.09
2022-12-02T03:53:49.117Z,100628.38
2022-12-02T03:54:55.124Z,100634.66
2022-12-02T03:55:58.542Z,100629.25
2022-12-02T03:57:00.294Z,100634.09
2022-12-02T03:58:07.663Z,100632.09
2022-12-02T03:59:10.204Z,100633.81
2022-12-02T04:00:16.116Z,100626.66
2022-12-02T04:01:19.392Z,100623.94
2022-12-02T04:02:22.120Z,100626.66
2022-12-02T04:03:23.917Z,100625.66
2022-12-02T04:04:26.641Z,100623.94
2022-12-02T04:05:28.351Z,100626.81
2022-12-02T04:06:30.976Z,100620.53
2022-12-02T04:07:32.686Z,100621.22
2022-12-02T04:08:35.457Z,100619.53
2022-12-02T04:09:39.610Z,100623.09
2022-12-02T04:10:42.384Z,100623.94
2022-12-02T04:11:44.071Z,100625.94
2022-12-02T04:12:46.838Z,100628.53
2022-12-02T04:13:49.924Z,100611.38
2022-12-02T04:14:52.868Z,100615.09
2022-12-02T04:15:54.899Z,100617.66
2022-12-02T04:16:57.614Z,100610.50
2022-12-02T04:17:59.309Z,100609.97
2022-12-02T04:19:01.994Z,100611.38
2022-12-02T04:20:05.199Z,100609.66
2022-12-02T04:21:08.047Z,100609.13
2022-12-02T04:22:09.707Z,100613.69
2022-12-02T04:23:12.487Z,100613.41
2022-12-02T04:24:14.151Z,100607.97
2022-12-02T04:25:16.958Z,100608.84
2022-12-02T04:26:18.735Z,100611.56
2022-12-02T04:27:21.418Z,100610.69
2022-12-02T04:28:23.154Z,100606.25
2022-12-02T04:29:27.297Z,100604.69
2022-12-02T04:30:29.026Z,100602.16
2022-12-02T04:31:31.917Z,100609.44
2022-12-02T04:32:33.615Z,100605.88
2022-12-02T04:33:36.390Z,100606.72
2022-12-02T04:34:38.110Z,100604.88
2022-12-02T04:35:40.927Z,100603.84
2022-12-02T04:36:42.840Z,100606.53
2022-12-02T04:37:45.466Z,100598.13
2022-12-02T04:38:47.288Z,100598.13
2022-12-02T04:39:49.967Z,100606.25
2022-12-02T04:40:51.618Z,100604.22
2022-12-02T04:41:54.339Z,100593.53
2022-12-02T04:42:56.391Z,100599.66
2022-12-02T04:43:59.112Z,100586.94
2022-12-02T04:45:02.432Z,100595.09
2022-12-02T04:46:05.264Z,100593.06
2022-12-02T04:47:07.106Z,100592.91
2022-12-02T04:48:09.812Z,100591.50
2022-12-02T04:49:11.531Z,100592.38
2022-12-02T04:50:14.358Z,100596.78
2022-12-02T04:51:16.059Z,100591.38
2022-12-02T04:52:18.848Z,100594.09
2022-12-02T04:53:20.567Z,100597.66
2022-12-02T04:54:23.265Z,100592.22
2022-12-02T04:55:24.973Z,100596.78
2022-12-02T04:56:27.640Z,100590.50
2022-12-02T04:57:31.630Z,100593.22
2022-12-02T04:58:34.704Z,100592.06
2022-12-02T04:59:36.387Z,100591.69
2022-12-02T05:00:40.434Z,100585.22
2022-12-02T05:01:42.240Z,100582.50
2022-12-02T05:02:45.004Z,100577.78
2022-12-02T05:03:46.836Z,100582.91
2022-12-02T05:04:49.572Z,100582.75
2022-12-02T05:05:51.260Z,100594.34
2022-12-02T05:06:53.976Z,100592.50
2022-12-02T05:07:55.719Z,100576.47
2022-12-02T05:08:58.563Z,100575.31
2022-12-02T05:10:00.297Z,100582.31
2022-12-02T05:11:02.917Z,100575.31
2022-12-02T05:12:04.851Z,100575.31
2022-12-02T05:13:07.549Z,100580.75
2022-12-02T05:14:09.313Z,100579.03
2022-12-02T05:15:12.523Z,100577.31
2022-12-02T05:16:15.619Z,100575.94
2022-12-02T05:17:18.291Z,100571.19
2022-12-02T05:18:19.965Z,100578.50
2022-12-02T05:19:22.594Z,100580.66
2022-12-02T05:20:24.328Z,100574.22
2022-12-02T05:21:26.963Z,100569.63
2022-12-02T05:22:28.697Z,100580.50
2022-12-02T05:23:31.447Z,100570.50
2022-12-02T05:24:33.183Z,100567.63
2022-12-02T05:25:35.988Z,100571.91
2022-12-02T05:26:37.723Z,100571.03
2022-12-02T05:27:40.445Z,100566.47
2022-12-02T05:28:42.195Z,100565.59
2022-12-02T05:29:44.967Z,100565.91
2022-12-02T05:30:46.686Z,100566.78
2022-12-02T05:31:50.895Z,100568.94
2022-12-02T05:32:52.675Z,100580.66
2022-12-02T05:33:55.327Z,100576.25
2022-12-02T05:34:57.002Z,100570.81
2022-12-02T05:35:59.870Z,100571.66
2022-12-02T05:37:01.517Z,100569.63
2022-12-02T05:38:05.169Z,100566.06
2022-12-02T05:39:07.128Z,100565.91
2022-12-02T05:40:11.243Z,100568.63
2022-12-02T05:41:13.028Z,100563.50
2022-12-02T05:42:16.472Z,100563.66
2022-12-02T05:43:20.152Z,100562.09
2022-12-02T05:44:24.116Z,100570.41
2022-12-02T05:45:25.812Z,100565.00
2022-12-02T05:46:28.666Z,100572.81
2022-12-02T05:47:32.572Z,100568.25
2022-12-02T05:48:36.013Z,100562.97
2022-12-02T05:49:38.284Z,100574.69
2022-12-02T05:50:41.502Z,100568.09
2022-12-02T05:51:46.421Z,100569.97
2022-12-02T05:52:51.144Z,100565.38
2022-12-02T05:53:52.854Z,100572.97
2022-12-02T05:54:58.214Z,100571.66
2022-12-02T05:56:00.532Z,100576.25
2022-12-02T05:57:04.301Z,100568.09
2022-12-02T05:58:07.551Z,100577.41
2022-12-02T05:59:16.152Z,100564.28
2022-12-02T06:00:19.588Z,100575.69
2022-12-02T06:01:24.415Z,100573.97
2022-12-02T06:02:37.154Z,100578.72
2022-12-02T06:03:42.975Z,100575.28
2022-12-02T06:04:44.703Z,100574.13
2022-12-02T06:05:47.666Z,100579.56
2022-12-02T06:06:49.645Z,100578.72
2022-12-02T06:07:57.804Z,100572.41
2022-12-02T06:09:00.028Z,100579.31
2022-12-02T06:10:02.710Z,100570.50
2022-12-02T06:11:11.024Z,100565.34
2022-12-02T06:12:16.226Z,100569.50
2022-12-02T06:13:20.640Z,100578.50
2022-12-02T06:14:25.855Z,100578.50
2022-12-02T06:15:30.283Z,100579.22
2022-12-02T06:16:35.078Z,100581.22
2022-12-02T06:17:38.662Z,100579.50
2022-12-02T06:18:41.423Z,100578.69
2022-12-02T06:19:45.244Z,100567.13
2022-12-02T06:20:51.959Z,100572.53
2022-12-02T06:21:54.346Z,100572.41
2022-12-02T06:22:57.346Z,100577.50
2022-12-02T06:24:00.123Z,100574.09
2022-12-02T06:25:03.364Z,100575.97
2022-12-02T06:26:06.362Z,100576.97
2022-12-02T06:27:13.139Z,100568.84
2022-12-02T06:28:24.484Z,100567.44
2022-12-02T06:29:28.180Z,100569.56
2022-12-02T06:30:30.854Z,100578.88
2022-12-02T06:31:35.315Z,100576.31
2022-12-02T06:32:41.880Z,100580.19
2022-12-02T06:33:45.338Z,100581.06
2022-12-02T06:34:50.029Z,100581.06
2022-12-02T06:35:53.506Z,100568.47
2022-12-02T06:36:57.618Z,100571.19
2022-12-02T06:38:01.394Z,100574.06
2022-12-02T06:39:07.522Z,100575.91
2022-12-02T06:40:29.749Z,100574.78
2022-12-02T06:41:34.381Z,100574.44
2022-12-02T06:42:39.011Z,100571.06
2022-12-02T06:43:41.856Z,100572.59
2022-12-02T06:45:02.108Z,100578.75
2022-12-02T06:46:06.215Z,100573.59
2022-12-02T06:47:54.569Z,100573.31
2022-12-02T06:48:59.095Z,100569.88
2022-12-02T06:50:08.967Z,100571.75
2022-12-02T06:51:14.382Z,100570.03
2022-12-02T06:52:22.554Z,100575.75
2022-12-02T06:53:29.193Z,100572.66
2022-12-02T06:54:33.527Z,100579.53
2022-12-02T06:55:36.733Z,100570.38
2022-12-02T06:56:39.483Z,100573.81
2022-12-02T06:57:41.171Z,100572.25
2022-12-02T06:58:45.294Z,100567.13
2022-12-02T06:59:48.719Z,100571.09
2022-12-02T07:00:51.539Z,100579.25
2022-12-02T07:01:56.403Z,100571.94
2022-12-02T07:02:58.314Z,100577.53
2022-12-02T07:04:06.215Z,100585.66
2022-12-02T07:05:08.666Z,100573.81
2022-12-02T07:06:15.517Z,100582.66
2022-12-02T07:07:21.259Z,100583.94
2022-12-02T07:08:23.264Z,100578.53
2022-12-02T07:09:31.195Z,100571.94
2022-12-02T07:10:33.897Z,100574.66
2022-12-02T07:11:50.619Z,100571.09
2022-12-02T07:12:53.342Z,100581.25
2022-12-02T07:13:55.012Z,100582.97
2022-12-02T07:14:59.330Z,100582.78
2022-12-02T07:16:01.030Z,100573.81
2022-12-02T07:17:05.229Z,100576.34
2022-12-02T07:18:13.290Z,100576.22
2022-12-02T07:19:19.039Z,100582.66
2022-12-02T07:20:30.960Z,100575.22
2022-12-02T07:21:33.159Z,100573.38
2022-12-02T07:22:38.606Z,100568.63
2022-12-02T07:23:40.382Z,100572.19
2022-12-02T07:24:44.171Z,100571.50
2022-12-02T07:25:47.156Z,100573.06
2022-12-02T07:26:50.138Z,100564.91
2022-12-02T07:27:54.810Z,100573.19
2022-12-02T07:29:14.883Z,100565.78
2022-12-02T07:30:22.848Z,100565.78
2022-12-02T07:31:27.369Z,100565.78
2022-12-02T07:32:30.099Z,100567.75
2022-12-02T07:33:31.836Z,100570.47
2022-12-02T07:34:35.846Z,100567.09
2022-12-02T07:35:37.598Z,100571.78
2022-12-02T07:36:40.419Z,100566.38
2022-12-02T07:37:42.115Z,100566.38
2022-12-02T07:40:08.660Z,100571.50
2022-12-02T07:41:10.471Z,100565.69
2022-12-02T07:42:14.409Z,100567.94
2022-12-02T07:43:16.246Z,100565.91
2022-12-02T07:44:19.015Z,100557.94
2022-12-02T07:45:21.015Z,100565.78
2022-12-02T07:46:24.255Z,100560.19
2022-12-02T07:47:26.994Z,100566.16
2022-12-02T07:48:29.645Z,100559.88
2022-12-02T07:49:32.298Z,100563.75
2022-12-02T07:50:35.429Z,100567.88
2022-12-02T07:51:38.148Z,100564.00
2022-12-02T07:52:40.817Z,100563.28
2022-12-02T07:53:42.479Z,100569.88
2022-12-02T07:54:45.154Z,100569.44
2022-12-02T07:55:46.901Z,100558.72
2022-12-02T07:56:49.781Z,100573.84
2022-12-02T07:57:52.411Z,100567.56
2022-12-02T07:59:12.443Z,100562.13
2022-12-02T08:00:16.991Z,100566.72
2022-12-02T08:01:20.348Z,100561.81
2022-12-02T08:02:22.188Z,100561.81
2022-12-02T08:03:25.544Z,100558.97
2022-12-02T08:04:28.286Z,100566.13
2022-12-02T08:05:30.115Z,100554.09
2022-12-02T08:06:39.121Z,100562.09
2022-12-02T08:07:43.253Z,100564.34
2022-12-02T08:08:46.929Z,100554.88
2022-12-02T08:09:49.082Z,100563.75
2022-12-02T08:10:51.958Z,100564.41
2022-12-02T08:11:53.666Z,100559.69
2022-12-02T08:12:56.376Z,100551.69
2022-12-02T08:13:58.461Z,100559.38
2022-12-02T08:15:02.433Z,100559.38
2022-12-02T08:16:05.619Z,100557.66
2022-12-02T08:17:08.348Z,100556.00
2022-12-02T08:18:11.047Z,100560.84
2022-12-02T08:19:14.024Z,100553.41
2022-12-02T08:20:15.829Z,100559.16
2022-12-02T08:21:18.588Z,100555.41
2022-12-02T08:22:22.607Z,100550.16
2022-12-02T08:23:25.319Z,100570.03
2022-12-02T08:24:28.214Z,100558.00
2022-12-02T08:25:29.876Z,100559.69
2022-12-02T08:26:32.700Z,100561.41
2022-12-02T08:27:34.429Z,100565.00
2022-12-02T08:28:37.086Z,100562.81
2022-12-02T08:29:38.830Z,100563.81
2022-12-02T08:30:41.664Z,100562.81
2022-12-02T08:31:43.449Z,100567.25
2022-12-02T08:32:46.631Z,100565.91
2022-12-02T08:33:48.606Z,100566.94
2022-12-02T08:34:51.401Z,100561.50
2022-12-02T08:35:54.287Z,100560.03
2022-12-02T08:36:56.078Z,100563.47
2022-12-02T08:38:00.821Z,100565.16
2022-12-02T08:39:05.684Z,100563.31
2022-12-02T08:40:08.475Z,100568.75
2022-12-02T08:41:13.947Z,100565.88
2022-12-02T08:42:15.955Z,100568.75
2022-12-02T08:43:18.629Z,100561.34
2022-12-02T08:44:20.270Z,100565.75
2022-12-02T08:45:23.099Z,100565.91
2022-12-02T08:46:25.888Z,100567.94
2022-12-02T08:47:28.650Z,100558.06
2022-12-02T08:48:30.431Z,100560.97
2022-12-02T08:49:33.133Z,100556.91
2022-12-02T08:50:34.931Z,100562.03
2022-12-02T08:51:38.007Z,100555.75
2022-12-02T08:52:39.753Z,100557.31
2022-12-02T08:53:43.759Z,100565.59
2022-12-02T08:54:48.637Z,100563.03
2022-12-02T08:55:51.682Z,100566.78
2022-12-02T08:56:53.413Z,100566.78
2022-12-02T08:57:56.139Z,100565.75
2022-12-02T08:58:59.201Z,100559.31
2022-12-02T09:00:00.922Z,100563.22
2022-12-02T09:01:03.765Z,100563.03
2022-12-02T09:02:05.599Z,100563.88
2022-12-02T09:03:08.999Z,100561.19
2022-12-02T09:04:10.709Z,100561.19
2022-12-02T09:05:13.447Z,100561.88
2022-12-02T09:06:15.391Z,100566.47
2022-12-02T09:07:18.202Z,100558.16
2022-12-02T09:08:19.880Z,100562.03
2022-12-02T09:09:23.896Z,100561.19
2022-12-02T09:10:26.678Z,100561.50
2022-12-02T09:11:29.392Z,100565.91
2022-12-02T09:12:31.094Z,100559.91
2022-12-02T09:13:33.725Z,100562.63
2022-12-02T09:14:36.379Z,100556.88
2022-12-02T09:15:39.105Z,100559.75
2022-12-02T09:16:40.775Z,100555.03
2022-12-02T09:17:43.442Z,100561.31
2022-12-02T09:18:45.348Z,100560.47
2022-12-02T09:19:48.019Z,100557.19
2022-12-02T09:20:49.690Z,100570.03
2022-12-02T09:21:52.336Z,100564.47
2022-12-02T09:22:54.145Z,100565.03
2022-12-02T09:23:56.778Z,100562.63
2022-12-02T09:25:00.854Z,100565.34
2022-12-02T09:26:03.550Z,100567.03
2022-12-02T09:27:05.261Z,100567.19
2022-12-02T09:28:07.973Z,100571.03
2022-12-02T09:29:10.703Z,100569.31
2022-12-02T09:30:12.756Z,100562.03
2022-12-02T09:31:15.638Z,100568.06
2022-12-02T09:32:18.428Z,100561.03
2022-12-02T09:33:20.241Z,100561.59
2022-12-02T09:34:22.944Z,100564.03
2022-12-02T09:35:25.640Z,100560.00
2022-12-02T09:36:28.370Z,100561.53
2022-12-02T09:37:31.199Z,100563.78
2022-12-02T09:38:33.934Z,100559.91
2022-12-02T09:39:39.113Z,100560.59
2022-12-02T09:40:44.431Z,100555.53
2022-12-02T09:41:47.284Z,100562.69
2022-12-02T09:42:50.994Z,100561.53
2022-12-02T09:43:52.822Z,100561.38
2022-12-02T09:44:55.553Z,100556.78
2022-12-02T09:45:58.879Z,100554.78
2022-12-02T09:47:01.865Z,100560.22
2022-12-02T09:48:04.931Z,100560.50
2022-12-02T09:49:07.787Z,100558.13
2022-12-02T09:50:12.006Z,100550.97
2022-12-02T09:51:14.247Z,100561.69
2022-12-02T09:52:25.296Z,100559.97
2022-12-02T09:53:31.168Z,100555.25
2022-12-02T09:54:33.236Z,100557.13
2022-12-02T09:55:38.553Z,100556.09
2022-12-02T09:56:42.691Z,100555.94
2022-12-02T09:57:44.923Z,100555.94
2022-12-02T09:58:48.317Z,100563.22
2022-12-02T09:59:49.984Z,100558.81
2022-12-02T10:00:53.691Z,100558.97
2022-12-02T10:01:58.748Z,100555.41
2022-12-02T10:03:01.692Z,100553.88
2022-12-02T10:04:04.566Z,100553.28
2022-12-02T10:05:12.928Z,100552.44
2022-12-02T10:06:19.051Z,100548.91
2022-12-02T10:07:20.791Z,100558.06
2022-12-02T10:08:25.932Z,100552.06
2022-12-02T10:09:30.406Z,100556.66
2022-12-02T10:10:36.891Z,100550.38
2022-12-02T10:11:39.909Z,100551.06
2022-12-02T10:12:43.167Z,100549.34
2022-12-02T10:13:45.831Z,100553.75
2022-12-02T10:14:50.691Z,100546.31
2022-12-02T10:15:54.308Z,100547.88
2022-12-02T10:16:56.721Z,100550.44
2022-12-02T10:18:02.221Z,100549.56
2022-12-02T10:19:06.540Z,100546.72
2022-12-02T10:20:14.607Z,100549.09
2022-12-02T10:21:17.310Z,100549.97
2022-12-02T10:22:21.902Z,100544.22
2022-12-02T10:23:25.098Z,100546.09
2022-12-02T10:24:37.691Z,100543.19
2022-12-02T10:25:42.067Z,100547.50
2022-12-02T10:26:47.942Z,100549.16
2022-12-02T10:27:51.022Z,100544.44
2022-12-02T10:29:07.747Z,100544.97
2022-12-02T10:30:15.799Z,100539.38
2022-12-02T10:31:22.542Z,100541.97
2022-12-02T10:32:27.889Z,100540.25
2022-12-02T10:33:32.630Z,100540.09
2022-12-02T10:34:36.937Z,100532.94
2022-12-02T10:35:44.379Z,100540.41
2022-12-02T10:36:47.142Z,100534.28
2022-12-02T10:37:50.039Z,100530.72
2022-12-02T10:38:51.708Z,100534.44
2022-12-02T10:40:09.247Z,100527.81
2022-12-02T10:41:21.360Z,100534.09
2022-12-02T10:42:24.216Z,100537.53
2022-12-02T10:43:27.226Z,100533.97
2022-12-02T10:44:29.899Z,100535.97
2022-12-02T10:45:31.592Z,100533.44
2022-12-02T10:46:34.570Z,100529.16
2022-12-02T10:47:37.494Z,100535.59
2022-12-02T10:48:39.132Z,100526.91
2022-12-02T10:49:45.842Z,100528.75
2022-12-02T10:50:48.502Z,100526.91
2022-12-02T10:51:50.158Z,100531.31
2022-12-02T10:52:54.991Z,100524.19
2022-12-02T10:54:00.878Z,100530.09
2022-12-02T10:55:05.888Z,100526.22
2022-12-02T10:56:08.928Z,100524.81
2022-12-02T10:57:13.787Z,100524.66
2022-12-02T10:58:18.407Z,100524.50
2022-12-02T10:59:22.122Z,100531.94
2022-12-02T11:00:26.873Z,100521.94
2022-12-02T11:01:28.710Z,100522.78
2022-12-02T11:02:34.736Z,100520.56
2022-12-02T11:03:37.642Z,100515.97
2022-12-02T11:04:39.343Z,100513.25
2022-12-02T11:05:42.343Z,100517.84
2022-12-02T11:06:44.537Z,100517.13
2022-12-02T11:07:55.125Z,100519.84
2022-12-02T11:09:17.264Z,100513.41
2022-12-02T11:10:22.541Z,100510.53
2022-12-02T11:11:38.634Z,100515.25
2022-12-02T11:13:00.603Z,100504.56
2022-12-02T11:14:04.763Z,100510.31
2022-12-02T11:15:40.689Z,100499.28
2022-12-02T11:17:09.427Z,100501.53
2022-12-02T11:18:13.962Z,100499.66
2022-12-02T11:19:46.575Z,100490.03
2022-12-02T11:20:49.331Z,100494.28
2022-12-02T11:21:53.962Z,100499.44
2022-12-02T11:23:16.043Z,100490.94
2022-12-02T11:24:35.950Z,100499.25
2022-12-02T11:26:05.017Z,100495.53
2022-12-02T11:27:16.572Z,100490.94
2022-12-02T11:28:40.366Z,100493.03
2022-12-02T11:29:44.885Z,100498.16
2022-12-02T11:30:47.842Z,100493.41
2022-12-02T11:32:04.287Z,100494.09
2022-12-02T11:33:10.690Z,100494.47
2022-12-02T11:35:08.665Z,100486.16
2022-12-02T11:36:14.031Z,100491.47
2022-12-02T11:37:37.693Z,100483.13
2022-12-02T11:38:45.505Z,100484.59
2022-12-02T11:39:52.861Z,100480.59
2022-12-02T11:41:04.660Z,100485.84
2022-12-02T11:42:20.957Z,100487.41
2022-12-02T11:43:53.230Z,100483.66
2022-12-02T11:45:13.121Z,100480.63
2022-12-02T11:46:15.763Z,100477.75
2022-12-02T11:47:31.024Z,100471.28
2022-12-02T11:48:34.207Z,100479.28
2022-12-02T11:49:40.072Z,100480.28
2022-12-02T11:50:42.691Z,100475.72
2022-12-02T11:51:45.464Z,100470.28
2022-12-02T11:52:52.476Z,100481.47
2022-12-02T11:53:54.359Z,100474.81
2022-12-02T11:55:13.337Z,100475.97
2022-12-02T11:56:19.090Z,100477.88
2022-12-02T11:57:24.785Z,100470.88
2022-12-02T11:58:29.242Z,100475.06
2022-12-02T11:59:31.079Z,100480.22
2022-12-02T12:00:38.407Z,100471.34
2022-12-02T12:01:40.471Z,100470.34
2022-12-02T12:02:44.153Z,100471.19
2022-12-02T12:03:49.523Z,100464.06
2022-12-02T12:05:04.432Z,100465.56
2022-12-02T12:06:08.854Z,100461.00
2022-12-02T12:07:12.312Z,100465.28
2022-12-02T12:08:25.419Z,100463.56
2022-12-02T12:09:28.415Z,100464.56
2022-12-02T12:10:33.872Z,100460.00
2022-12-02T12:11:37.478Z,100457.75
2022-12-02T12:12:40.371Z,100463.72
2022-12-02T12:14:00.610Z,100461.84